sensor_id;sensor_type;location;lat;lon;timestamp;P1;durP1;ratioP1;P2;durP2;ratioP2
17345;SDS011;8790;53.590;10.002;2023-09-19T00:01:43;2.85;;;1.50;;
17345;SDS011;8790;53.590;10.002;2023-09-19T00:04:15;4.60;;;1.80;;
17345;SDS011;8790;53.590;10.002;2023-09-19T00:06:49;1.55;;;1.38;;
17345;SDS011;8790;53.590;10.002;2023-09-19T00:09:20;3.42;;;1.58;;
17345;SDS011;8790;53.590;10.002;2023-09-19T00:11:53;3.28;;;1.45;;
17345;SDS011;8790;53.590;10.002;2023-09-19T00:14:24;2.22;;;1.50;;
17345;SDS011;8790;53.590;10.002;2023-09-19T00:16:56;2.83;;;1.50;;
17345;SDS011;8790;53.590;10.002;2023-09-19T00:19:27;2.80;;;1.83;;
17345;SDS011;8790;53.590;10.002;2023-09-19T00:22:00;3.13;;;1.50;;
17345;SDS011;8790;53.590;10.002;2023-09-19T00:24:33;3.10;;;1.90;;
17345;SDS011;8790;53.590;10.002;2023-09-19T00:27:05;2.92;;;1.73;;
17345;SDS011;8790;53.590;10.002;2023-09-19T00:29:38;2.80;;;1.63;;
17345;SDS011;8790;53.590;10.002;2023-09-19T00:32:10;2.75;;;1.80;;
17345;SDS011;8790;53.590;10.002;2023-09-19T00:34:41;2.40;;;1.40;;
17345;SDS011;8790;53.590;10.002;2023-09-19T00:37:14;2.00;;;1.70;;
17345;SDS011;8790;53.590;10.002;2023-09-19T00:39:48;3.22;;;1.85;;
17345;SDS011;8790;53.590;10.002;2023-09-19T00:42:20;3.20;;;1.80;;
17345;SDS011;8790;53.590;10.002;2023-09-19T00:44:52;2.03;;;1.58;;
17345;SDS011;8790;53.590;10.002;2023-09-19T00:47:23;2.67;;;1.70;;
17345;SDS011;8790;53.590;10.002;2023-09-19T00:49:55;2.08;;;1.60;;
17345;SDS011;8790;53.590;10.002;2023-09-19T00:52:27;3.10;;;1.80;;
17345;SDS011;8790;53.590;10.002;2023-09-19T00:54:59;3.05;;;1.88;;
17345;SDS011;8790;53.590;10.002;2023-09-19T00:57:33;3.33;;;1.90;;
17345;SDS011;8790;53.590;10.002;2023-09-19T01:00:07;3.10;;;1.73;;
17345;SDS011;8790;53.590;10.002;2023-09-19T01:02:45;3.05;;;2.03;;
17345;SDS011;8790;53.590;10.002;2023-09-19T01:05:17;3.92;;;2.10;;
17345;SDS011;8790;53.590;10.002;2023-09-19T01:07:49;3.83;;;2.13;;
17345;SDS011;8790;53.590;10.002;2023-09-19T01:10:23;4.32;;;2.35;;
17345;SDS011;8790;53.590;10.002;2023-09-19T01:12:58;3.20;;;2.00;;
17345;SDS011;8790;53.590;10.002;2023-09-19T01:15:38;3.90;;;2.30;;
17345;SDS011;8790;53.590;10.002;2023-09-19T01:18:16;2.88;;;2.20;;
17345;SDS011;8790;53.590;10.002;2023-09-19T01:20:53;3.05;;;2.20;;
17345;SDS011;8790;53.590;10.002;2023-09-19T01:23:30;4.07;;;1.98;;
17345;SDS011;8790;53.590;10.002;2023-09-19T01:26:11;3.75;;;2.47;;
17345;SDS011;8790;53.590;10.002;2023-09-19T01:28:56;3.45;;;2.22;;
17345;SDS011;8790;53.590;10.002;2023-09-19T01:31:35;7.27;;;2.40;;
17345;SDS011;8790;53.590;10.002;2023-09-19T01:34:09;4.63;;;2.30;;
17345;SDS011;8790;53.590;10.002;2023-09-19T01:36:41;3.53;;;2.08;;
17345;SDS011;8790;53.590;10.002;2023-09-19T01:39:13;3.10;;;2.17;;
17345;SDS011;8790;53.590;10.002;2023-09-19T01:41:54;4.03;;;2.30;;
17345;SDS011;8790;53.590;10.002;2023-09-19T01:44:31;2.97;;;2.10;;
17345;SDS011;8790;53.590;10.002;2023-09-19T01:47:17;2.97;;;1.73;;
17345;SDS011;8790;53.590;10.002;2023-09-19T01:49:55;3.47;;;2.20;;
17345;SDS011;8790;53.590;10.002;2023-09-19T01:52:30;2.47;;;2.00;;
17345;SDS011;8790;53.590;10.002;2023-09-19T01:55:05;2.70;;;1.80;;
17345;SDS011;8790;53.590;10.002;2023-09-19T01:57:40;3.58;;;2.17;;
17345;SDS011;8790;53.590;10.002;2023-09-19T02:00:15;3.10;;;1.67;;
17345;SDS011;8790;53.590;10.002;2023-09-19T02:03:16;3.72;;;1.75;;
17345;SDS011;8790;53.590;10.002;2023-09-19T02:05:49;3.03;;;1.67;;
17345;SDS011;8790;53.590;10.002;2023-09-19T02:08:21;4.68;;;1.90;;
17345;SDS011;8790;53.590;10.002;2023-09-19T02:10:54;3.17;;;1.63;;
17345;SDS011;8790;53.590;10.002;2023-09-19T02:13:26;2.13;;;1.67;;
17345;SDS011;8790;53.590;10.002;2023-09-19T02:15:58;3.78;;;1.90;;
17345;SDS011;8790;53.590;10.002;2023-09-19T02:18:31;3.08;;;2.00;;
17345;SDS011;8790;53.590;10.002;2023-09-19T02:21:05;2.67;;;2.00;;
17345;SDS011;8790;53.590;10.002;2023-09-19T02:23:37;4.40;;;2.10;;
17345;SDS011;8790;53.590;10.002;2023-09-19T02:26:09;3.45;;;2.50;;
17345;SDS011;8790;53.590;10.002;2023-09-19T02:28:41;4.25;;;2.70;;
17345;SDS011;8790;53.590;10.002;2023-09-19T02:31:13;4.25;;;2.70;;
17345;SDS011;8790;53.590;10.002;2023-09-19T02:33:48;3.80;;;2.90;;
17345;SDS011;8790;53.590;10.002;2023-09-19T02:36:19;4.53;;;3.28;;
17345;SDS011;8790;53.590;10.002;2023-09-19T02:38:50;3.97;;;2.63;;
17345;SDS011;8790;53.590;10.002;2023-09-19T02:41:22;5.32;;;2.92;;
17345;SDS011;8790;53.590;10.002;2023-09-19T02:43:53;5.15;;;2.83;;
17345;SDS011;8790;53.590;10.002;2023-09-19T02:46:24;4.57;;;3.00;;
17345;SDS011;8790;53.590;10.002;2023-09-19T02:48:57;4.40;;;2.53;;
17345;SDS011;8790;53.590;10.002;2023-09-19T02:51:28;4.63;;;3.08;;
17345;SDS011;8790;53.590;10.002;2023-09-19T02:54:00;6.00;;;2.60;;
17345;SDS011;8790;53.590;10.002;2023-09-19T02:56:34;5.15;;;2.65;;
17345;SDS011;8790;53.590;10.002;2023-09-19T02:59:05;3.95;;;2.58;;
17345;SDS011;8790;53.590;10.002;2023-09-19T03:01:37;4.05;;;2.35;;
17345;SDS011;8790;53.590;10.002;2023-09-19T03:04:09;3.88;;;2.33;;
17345;SDS011;8790;53.590;10.002;2023-09-19T03:06:42;6.15;;;2.35;;
17345;SDS011;8790;53.590;10.002;2023-09-19T03:09:14;4.28;;;2.20;;
17345;SDS011;8790;53.590;10.002;2023-09-19T03:11:46;4.47;;;2.40;;
17345;SDS011;8790;53.590;10.002;2023-09-19T03:14:18;5.15;;;2.15;;
17345;SDS011;8790;53.590;10.002;2023-09-19T03:16:51;4.57;;;2.50;;
17345;SDS011;8790;53.590;10.002;2023-09-19T03:19:24;5.78;;;1.95;;
17345;SDS011;8790;53.590;10.002;2023-09-19T03:21:57;2.80;;;1.88;;
17345;SDS011;8790;53.590;10.002;2023-09-19T03:24:28;5.90;;;2.03;;
17345;SDS011;8790;53.590;10.002;2023-09-19T03:27:02;3.30;;;2.00;;
17345;SDS011;8790;53.590;10.002;2023-09-19T03:29:34;3.50;;;1.80;;
17345;SDS011;8790;53.590;10.002;2023-09-19T03:32:06;4.53;;;1.90;;
17345;SDS011;8790;53.590;10.002;2023-09-19T03:34:38;3.97;;;1.87;;
17345;SDS011;8790;53.590;10.002;2023-09-19T03:37:13;3.63;;;1.80;;
17345;SDS011;8790;53.590;10.002;2023-09-19T03:39:45;3.63;;;1.70;;
17345;SDS011;8790;53.590;10.002;2023-09-19T03:42:17;5.57;;;1.77;;
17345;SDS011;8790;53.590;10.002;2023-09-19T03:44:56;3.80;;;1.83;;
17345;SDS011;8790;53.590;10.002;2023-09-19T03:47:27;3.57;;;1.73;;
17345;SDS011;8790;53.590;10.002;2023-09-19T03:50:02;5.73;;;2.10;;
17345;SDS011;8790;53.590;10.002;2023-09-19T03:52:34;2.63;;;1.80;;
17345;SDS011;8790;53.590;10.002;2023-09-19T03:55:05;3.80;;;2.00;;
17345;SDS011;8790;53.590;10.002;2023-09-19T03:57:37;2.55;;;1.85;;
17345;SDS011;8790;53.590;10.002;2023-09-19T04:00:09;3.08;;;1.65;;
17345;SDS011;8790;53.590;10.002;2023-09-19T04:02:44;2.90;;;1.63;;
17345;SDS011;8790;53.590;10.002;2023-09-19T04:05:17;3.47;;;1.50;;
17345;SDS011;8790;53.590;10.002;2023-09-19T04:07:50;2.53;;;1.50;;
17345;SDS011;8790;53.590;10.002;2023-09-19T04:10:21;3.28;;;1.58;;
17345;SDS011;8790;53.590;10.002;2023-09-19T04:12:52;3.00;;;1.57;;
17345;SDS011;8790;53.590;10.002;2023-09-19T04:15:24;2.23;;;1.20;;
17345;SDS011;8790;53.590;10.002;2023-09-19T04:17:58;4.07;;;1.77;;
17345;SDS011;8790;53.590;10.002;2023-09-19T04:20:31;4.80;;;1.87;;
17345;SDS011;8790;53.590;10.002;2023-09-19T04:23:03;2.73;;;1.30;;
17345;SDS011;8790;53.590;10.002;2023-09-19T04:25:36;4.07;;;1.70;;
17345;SDS011;8790;53.590;10.002;2023-09-19T04:28:07;3.33;;;1.50;;
17345;SDS011;8790;53.590;10.002;2023-09-19T04:30:40;5.22;;;1.63;;
17345;SDS011;8790;53.590;10.002;2023-09-19T04:33:11;2.03;;;1.40;;
17345;SDS011;8790;53.590;10.002;2023-09-19T04:35:45;4.28;;;1.20;;
17345;SDS011;8790;53.590;10.002;2023-09-19T04:38:20;3.13;;;1.37;;
17345;SDS011;8790;53.590;10.002;2023-09-19T04:40:56;4.20;;;1.40;;
17345;SDS011;8790;53.590;10.002;2023-09-19T04:43:28;4.87;;;1.93;;
17345;SDS011;8790;53.590;10.002;2023-09-19T04:46:00;3.47;;;1.07;;
17345;SDS011;8790;53.590;10.002;2023-09-19T04:48:31;3.67;;;1.23;;
17345;SDS011;8790;53.590;10.002;2023-09-19T04:51:05;3.63;;;1.40;;
17345;SDS011;8790;53.590;10.002;2023-09-19T04:53:37;4.53;;;1.27;;
17345;SDS011;8790;53.590;10.002;2023-09-19T04:56:08;3.23;;;1.23;;
17345;SDS011;8790;53.590;10.002;2023-09-19T04:58:40;3.23;;;1.43;;
17345;SDS011;8790;53.590;10.002;2023-09-19T05:01:11;3.27;;;1.27;;
17345;SDS011;8790;53.590;10.002;2023-09-19T05:03:45;4.43;;;1.30;;
17345;SDS011;8790;53.590;10.002;2023-09-19T05:06:20;4.93;;;1.50;;
17345;SDS011;8790;53.590;10.002;2023-09-19T05:08:52;3.20;;;1.33;;
17345;SDS011;8790;53.590;10.002;2023-09-19T05:11:23;6.80;;;1.97;;
17345;SDS011;8790;53.590;10.002;2023-09-19T05:13:55;4.70;;;1.20;;
17345;SDS011;8790;53.590;10.002;2023-09-19T05:16:28;3.03;;;1.20;;
17345;SDS011;8790;53.590;10.002;2023-09-19T05:18:59;3.00;;;1.30;;
17345;SDS011;8790;53.590;10.002;2023-09-19T05:21:32;8.43;;;1.47;;
17345;SDS011;8790;53.590;10.002;2023-09-19T05:24:04;4.37;;;1.80;;
17345;SDS011;8790;53.590;10.002;2023-09-19T05:26:36;5.03;;;1.33;;
17345;SDS011;8790;53.590;10.002;2023-09-19T05:29:08;4.73;;;1.57;;
17345;SDS011;8790;53.590;10.002;2023-09-19T05:31:39;4.00;;;1.50;;
17345;SDS011;8790;53.590;10.002;2023-09-19T05:34:13;3.57;;;1.30;;
17345;SDS011;8790;53.590;10.002;2023-09-19T05:36:45;4.70;;;1.40;;
17345;SDS011;8790;53.590;10.002;2023-09-19T05:39:18;3.33;;;1.40;;
17345;SDS011;8790;53.590;10.002;2023-09-19T05:41:50;3.07;;;1.40;;
17345;SDS011;8790;53.590;10.002;2023-09-19T05:44:22;3.03;;;1.50;;
17345;SDS011;8790;53.590;10.002;2023-09-19T05:46:53;5.50;;;2.50;;
17345;SDS011;8790;53.590;10.002;2023-09-19T05:49:26;4.07;;;1.70;;
17345;SDS011;8790;53.590;10.002;2023-09-19T05:51:59;3.20;;;1.30;;
17345;SDS011;8790;53.590;10.002;2023-09-19T05:54:31;5.80;;;1.77;;
17345;SDS011;8790;53.590;10.002;2023-09-19T05:57:03;5.57;;;1.60;;
17345;SDS011;8790;53.590;10.002;2023-09-19T05:59:35;5.80;;;1.60;;
17345;SDS011;8790;53.590;10.002;2023-09-19T06:02:06;3.80;;;1.37;;
17345;SDS011;8790;53.590;10.002;2023-09-19T06:04:39;3.87;;;1.23;;
17345;SDS011;8790;53.590;10.002;2023-09-19T06:07:12;4.00;;;1.73;;
17345;SDS011;8790;53.590;10.002;2023-09-19T06:09:46;5.00;;;1.90;;
17345;SDS011;8790;53.590;10.002;2023-09-19T06:12:17;4.20;;;1.43;;
17345;SDS011;8790;53.590;10.002;2023-09-19T06:14:49;3.60;;;1.50;;
17345;SDS011;8790;53.590;10.002;2023-09-19T06:17:20;4.03;;;1.70;;
17345;SDS011;8790;53.590;10.002;2023-09-19T06:19:52;4.43;;;1.50;;
17345;SDS011;8790;53.590;10.002;2023-09-19T06:22:27;4.33;;;1.63;;
17345;SDS011;8790;53.590;10.002;2023-09-19T06:24:59;4.77;;;1.70;;
17345;SDS011;8790;53.590;10.002;2023-09-19T06:27:31;3.27;;;1.60;;
17345;SDS011;8790;53.590;10.002;2023-09-19T06:30:02;4.57;;;1.60;;
17345;SDS011;8790;53.590;10.002;2023-09-19T06:32:34;3.60;;;1.63;;
17345;SDS011;8790;53.590;10.002;2023-09-19T06:35:06;3.47;;;1.37;;
17345;SDS011;8790;53.590;10.002;2023-09-19T06:37:40;3.73;;;1.40;;
17345;SDS011;8790;53.590;10.002;2023-09-19T06:40:12;4.20;;;1.50;;
17345;SDS011;8790;53.590;10.002;2023-09-19T06:42:46;5.47;;;1.80;;
17345;SDS011;8790;53.590;10.002;2023-09-19T06:45:19;4.82;;;1.70;;
17345;SDS011;8790;53.590;10.002;2023-09-19T06:47:52;7.23;;;1.80;;
17345;SDS011;8790;53.590;10.002;2023-09-19T06:50:24;5.67;;;1.83;;
17345;SDS011;8790;53.590;10.002;2023-09-19T06:52:56;6.47;;;1.90;;
17345;SDS011;8790;53.590;10.002;2023-09-19T06:55:29;4.70;;;1.40;;
17345;SDS011;8790;53.590;10.002;2023-09-19T06:58:01;3.47;;;1.80;;
17345;SDS011;8790;53.590;10.002;2023-09-19T07:00:32;5.27;;;2.20;;
17345;SDS011;8790;53.590;10.002;2023-09-19T07:03:06;5.57;;;2.00;;
17345;SDS011;8790;53.590;10.002;2023-09-19T07:05:41;4.17;;;1.70;;
17345;SDS011;8790;53.590;10.002;2023-09-19T07:08:14;7.90;;;1.87;;
17345;SDS011;8790;53.590;10.002;2023-09-19T07:10:46;5.40;;;1.57;;
17345;SDS011;8790;53.590;10.002;2023-09-19T07:13:19;4.50;;;1.63;;
17345;SDS011;8790;53.590;10.002;2023-09-19T07:15:50;6.03;;;1.70;;
17345;SDS011;8790;53.590;10.002;2023-09-19T07:18:22;5.00;;;1.87;;
17345;SDS011;8790;53.590;10.002;2023-09-19T07:20:56;6.03;;;2.27;;
17345;SDS011;8790;53.590;10.002;2023-09-19T07:23:32;9.20;;;2.57;;
17345;SDS011;8790;53.590;10.002;2023-09-19T07:26:04;6.77;;;1.93;;
17345;SDS011;8790;53.590;10.002;2023-09-19T07:28:36;5.40;;;1.63;;
17345;SDS011;8790;53.590;10.002;2023-09-19T07:31:07;4.93;;;1.80;;
17345;SDS011;8790;53.590;10.002;2023-09-19T07:33:40;5.53;;;1.57;;
17345;SDS011;8790;53.590;10.002;2023-09-19T07:36:11;6.60;;;1.67;;
17345;SDS011;8790;53.590;10.002;2023-09-19T07:38:45;5.53;;;1.90;;
17345;SDS011;8790;53.590;10.002;2023-09-19T07:41:18;4.03;;;1.90;;
17345;SDS011;8790;53.590;10.002;2023-09-19T07:43:49;5.37;;;1.93;;
17345;SDS011;8790;53.590;10.002;2023-09-19T07:46:21;6.57;;;1.77;;
17345;SDS011;8790;53.590;10.002;2023-09-19T07:48:52;4.97;;;1.80;;
17345;SDS011;8790;53.590;10.002;2023-09-19T07:51:24;5.70;;;1.98;;
17345;SDS011;8790;53.590;10.002;2023-09-19T07:53:56;5.10;;;1.50;;
17345;SDS011;8790;53.590;10.002;2023-09-19T07:56:28;6.10;;;2.17;;
17345;SDS011;8790;53.590;10.002;2023-09-19T07:59:02;5.47;;;2.37;;
17345;SDS011;8790;53.590;10.002;2023-09-19T08:01:33;7.55;;;2.28;;
17345;SDS011;8790;53.590;10.002;2023-09-19T08:04:05;6.20;;;2.00;;
17345;SDS011;8790;53.590;10.002;2023-09-19T08:06:37;6.80;;;2.40;;
17345;SDS011;8790;53.590;10.002;2023-09-19T08:09:10;5.53;;;2.20;;
17345;SDS011;8790;53.590;10.002;2023-09-19T08:11:46;3.43;;;2.00;;
17345;SDS011;8790;53.590;10.002;2023-09-19T08:14:17;8.20;;;2.20;;
17345;SDS011;8790;53.590;10.002;2023-09-19T08:16:49;7.03;;;2.53;;
17345;SDS011;8790;53.590;10.002;2023-09-19T08:19:20;6.27;;;2.53;;
17345;SDS011;8790;53.590;10.002;2023-09-19T08:21:54;5.70;;;2.20;;
17345;SDS011;8790;53.590;10.002;2023-09-19T08:24:29;7.80;;;2.40;;
17345;SDS011;8790;53.590;10.002;2023-09-19T08:27:03;5.57;;;2.70;;
17345;SDS011;8790;53.590;10.002;2023-09-19T08:29:36;7.00;;;2.07;;
17345;SDS011;8790;53.590;10.002;2023-09-19T08:32:07;6.37;;;2.07;;
17345;SDS011;8790;53.590;10.002;2023-09-19T08:34:38;8.53;;;2.07;;
17345;SDS011;8790;53.590;10.002;2023-09-19T08:37:10;7.17;;;2.47;;
17345;SDS011;8790;53.590;10.002;2023-09-19T08:39:43;7.07;;;2.33;;
17345;SDS011;8790;53.590;10.002;2023-09-19T08:42:14;4.63;;;2.20;;
17345;SDS011;8790;53.590;10.002;2023-09-19T08:44:48;6.67;;;2.40;;
17345;SDS011;8790;53.590;10.002;2023-09-19T08:47:19;7.57;;;2.53;;
17345;SDS011;8790;53.590;10.002;2023-09-19T08:49:58;7.57;;;2.23;;
17345;SDS011;8790;53.590;10.002;2023-09-19T08:52:36;6.47;;;2.40;;
17345;SDS011;8790;53.590;10.002;2023-09-19T08:55:11;5.53;;;2.50;;
17345;SDS011;8790;53.590;10.002;2023-09-19T08:57:50;6.67;;;2.13;;
17345;SDS011;8790;53.590;10.002;2023-09-19T09:00:23;5.50;;;2.37;;
17345;SDS011;8790;53.590;10.002;2023-09-19T09:02:58;6.87;;;2.40;;
17345;SDS011;8790;53.590;10.002;2023-09-19T09:05:30;5.63;;;2.20;;
17345;SDS011;8790;53.590;10.002;2023-09-19T09:08:03;3.93;;;2.13;;
17345;SDS011;8790;53.590;10.002;2023-09-19T09:10:38;8.27;;;2.37;;
17345;SDS011;8790;53.590;10.002;2023-09-19T09:13:10;5.70;;;2.20;;
17345;SDS011;8790;53.590;10.002;2023-09-19T09:15:44;6.30;;;2.30;;
17345;SDS011;8790;53.590;10.002;2023-09-19T09:18:15;9.33;;;2.60;;
17345;SDS011;8790;53.590;10.002;2023-09-19T09:20:48;6.37;;;2.50;;
17345;SDS011;8790;53.590;10.002;2023-09-19T09:23:19;5.67;;;2.20;;
17345;SDS011;8790;53.590;10.002;2023-09-19T09:25:53;7.10;;;2.40;;
17345;SDS011;8790;53.590;10.002;2023-09-19T09:28:27;7.80;;;3.00;;
17345;SDS011;8790;53.590;10.002;2023-09-19T09:30:59;4.47;;;2.13;;
17345;SDS011;8790;53.590;10.002;2023-09-19T09:33:32;6.77;;;2.40;;
17345;SDS011;8790;53.590;10.002;2023-09-19T09:36:04;9.63;;;2.50;;
17345;SDS011;8790;53.590;10.002;2023-09-19T09:38:43;7.03;;;2.43;;
17345;SDS011;8790;53.590;10.002;2023-09-19T09:41:16;8.43;;;2.13;;
17345;SDS011;8790;53.590;10.002;2023-09-19T09:43:57;7.97;;;2.30;;
17345;SDS011;8790;53.590;10.002;2023-09-19T09:46:45;5.60;;;1.97;;
17345;SDS011;8790;53.590;10.002;2023-09-19T09:49:36;7.80;;;2.03;;
17345;SDS011;8790;53.590;10.002;2023-09-19T09:52:09;6.90;;;1.90;;
17345;SDS011;8790;53.590;10.002;2023-09-19T09:54:57;5.53;;;2.20;;
17345;SDS011;8790;53.590;10.002;2023-09-19T09:57:31;5.60;;;2.30;;
17345;SDS011;8790;53.590;10.002;2023-09-19T10:00:04;7.23;;;2.07;;
17345;SDS011;8790;53.590;10.002;2023-09-19T10:02:50;5.20;;;1.80;;
17345;SDS011;8790;53.590;10.002;2023-09-19T10:05:21;7.73;;;1.63;;
17345;SDS011;8790;53.590;10.002;2023-09-19T10:07:58;6.63;;;1.80;;
17345;SDS011;8790;53.590;10.002;2023-09-19T10:10:43;5.50;;;1.70;;
17345;SDS011;8790;53.590;10.002;2023-09-19T10:13:25;8.73;;;1.80;;
17345;SDS011;8790;53.590;10.002;2023-09-19T10:15:57;4.32;;;1.40;;
17345;SDS011;8790;53.590;10.002;2023-09-19T10:18:30;4.77;;;1.57;;
17345;SDS011;8790;53.590;10.002;2023-09-19T10:21:06;5.47;;;1.60;;
17345;SDS011;8790;53.590;10.002;2023-09-19T10:23:39;5.93;;;1.50;;
17345;SDS011;8790;53.590;10.002;2023-09-19T10:26:15;6.37;;;1.53;;
17345;SDS011;8790;53.590;10.002;2023-09-19T10:28:49;4.57;;;1.87;;
17345;SDS011;8790;53.590;10.002;2023-09-19T10:31:21;3.07;;;1.47;;
17345;SDS011;8790;53.590;10.002;2023-09-19T10:33:55;5.63;;;1.80;;
17345;SDS011;8790;53.590;10.002;2023-09-19T10:36:28;5.43;;;1.27;;
17345;SDS011;8790;53.590;10.002;2023-09-19T10:39:04;4.88;;;1.60;;
17345;SDS011;8790;53.590;10.002;2023-09-19T10:41:36;6.18;;;1.45;;
17345;SDS011;8790;53.590;10.002;2023-09-19T10:44:10;5.68;;;1.60;;
17345;SDS011;8790;53.590;10.002;2023-09-19T10:46:41;5.97;;;1.58;;
17345;SDS011;8790;53.590;10.002;2023-09-19T10:49:15;4.47;;;1.73;;
17345;SDS011;8790;53.590;10.002;2023-09-19T10:51:49;4.68;;;1.70;;
17345;SDS011;8790;53.590;10.002;2023-09-19T10:54:25;5.95;;;1.65;;
17345;SDS011;8790;53.590;10.002;2023-09-19T10:56:59;7.65;;;1.42;;
17345;SDS011;8790;53.590;10.002;2023-09-19T10:59:32;5.65;;;1.50;;
17345;SDS011;8790;53.590;10.002;2023-09-19T11:02:15;5.72;;;1.38;;
17345;SDS011;8790;53.590;10.002;2023-09-19T11:04:47;4.68;;;1.52;;
17345;SDS011;8790;53.590;10.002;2023-09-19T11:07:20;4.25;;;1.80;;
17345;SDS011;8790;53.590;10.002;2023-09-19T11:09:51;5.78;;;1.63;;
17345;SDS011;8790;53.590;10.002;2023-09-19T11:12:47;5.00;;;1.30;;
17345;SDS011;8790;53.590;10.002;2023-09-19T11:21:51;4.93;;;1.55;;
17345;SDS011;8790;53.590;10.002;2023-09-19T11:24:28;2.78;;;1.35;;
17345;SDS011;8790;53.590;10.002;2023-09-19T11:27:10;3.75;;;1.50;;
17345;SDS011;8790;53.590;10.002;2023-09-19T11:29:47;4.38;;;1.70;;
17345;SDS011;8790;53.590;10.002;2023-09-19T11:32:21;4.15;;;1.25;;
17345;SDS011;8790;53.590;10.002;2023-09-19T11:41:38;3.92;;;1.55;;
17345;SDS011;8790;53.590;10.002;2023-09-19T11:47:06;6.60;;;1.95;;
17345;SDS011;8790;53.590;10.002;2023-09-19T11:49:40;5.65;;;1.40;;
17345;SDS011;8790;53.590;10.002;2023-09-19T11:52:16;8.27;;;1.60;;
17345;SDS011;8790;53.590;10.002;2023-09-19T11:54:54;5.07;;;1.50;;
17345;SDS011;8790;53.590;10.002;2023-09-19T11:57:27;4.32;;;1.60;;
17345;SDS011;8790;53.590;10.002;2023-09-19T12:00:00;3.58;;;1.50;;
17345;SDS011;8790;53.590;10.002;2023-09-19T12:02:42;4.60;;;1.50;;
17345;SDS011;8790;53.590;10.002;2023-09-19T12:05:19;7.82;;;1.55;;
17345;SDS011;8790;53.590;10.002;2023-09-19T12:08:00;5.43;;;1.63;;
17345;SDS011;8790;53.590;10.002;2023-09-19T12:10:33;3.85;;;1.40;;
17345;SDS011;8790;53.590;10.002;2023-09-19T12:13:06;4.88;;;1.63;;
17345;SDS011;8790;53.590;10.002;2023-09-19T12:15:39;5.10;;;1.83;;
17345;SDS011;8790;53.590;10.002;2023-09-19T12:18:27;8.88;;;1.42;;
17345;SDS011;8790;53.590;10.002;2023-09-19T12:20:59;4.97;;;1.60;;
17345;SDS011;8790;53.590;10.002;2023-09-19T12:23:36;6.25;;;1.60;;
17345;SDS011;8790;53.590;10.002;2023-09-19T12:26:07;6.43;;;1.90;;
17345;SDS011;8790;53.590;10.002;2023-09-19T12:28:42;5.13;;;2.03;;
17345;SDS011;8790;53.590;10.002;2023-09-19T12:31:15;4.53;;;1.77;;
17345;SDS011;8790;53.590;10.002;2023-09-19T12:33:52;8.73;;;2.08;;
17345;SDS011;8790;53.590;10.002;2023-09-19T12:36:24;5.28;;;1.67;;
17345;SDS011;8790;53.590;10.002;2023-09-19T12:39:01;4.22;;;2.00;;
17345;SDS011;8790;53.590;10.002;2023-09-19T12:41:39;5.97;;;1.80;;
17345;SDS011;8790;53.590;10.002;2023-09-19T12:44:10;4.35;;;1.63;;
17345;SDS011;8790;53.590;10.002;2023-09-19T12:46:43;4.47;;;1.80;;
17345;SDS011;8790;53.590;10.002;2023-09-19T12:49:15;6.65;;;2.00;;
17345;SDS011;8790;53.590;10.002;2023-09-19T12:51:48;4.53;;;1.58;;
17345;SDS011;8790;53.590;10.002;2023-09-19T12:54:22;6.15;;;1.70;;
17345;SDS011;8790;53.590;10.002;2023-09-19T12:56:55;4.40;;;1.98;;
17345;SDS011;8790;53.590;10.002;2023-09-19T12:59:29;6.47;;;1.70;;
17345;SDS011;8790;53.590;10.002;2023-09-19T13:02:03;5.72;;;1.88;;
17345;SDS011;8790;53.590;10.002;2023-09-19T13:04:36;7.40;;;1.75;;
17345;SDS011;8790;53.590;10.002;2023-09-19T13:07:10;5.45;;;2.00;;
17345;SDS011;8790;53.590;10.002;2023-09-19T13:10:14;5.13;;;1.67;;
17345;SDS011;8790;53.590;10.002;2023-09-19T13:12:46;5.75;;;1.67;;
17345;SDS011;8790;53.590;10.002;2023-09-19T13:15:18;5.80;;;1.90;;
17345;SDS011;8790;53.590;10.002;2023-09-19T13:17:50;4.13;;;1.50;;
17345;SDS011;8790;53.590;10.002;2023-09-19T13:20:23;5.45;;;1.50;;
17345;SDS011;8790;53.590;10.002;2023-09-19T13:22:57;8.15;;;1.63;;
17345;SDS011;8790;53.590;10.002;2023-09-19T13:25:32;5.05;;;1.63;;
17345;SDS011;8790;53.590;10.002;2023-09-19T13:28:04;5.65;;;1.90;;
17345;SDS011;8790;53.590;10.002;2023-09-19T13:30:37;8.23;;;2.00;;
17345;SDS011;8790;53.590;10.002;2023-09-19T13:33:12;7.45;;;2.10;;
17345;SDS011;8790;53.590;10.002;2023-09-19T13:35:51;3.92;;;1.60;;
17345;SDS011;8790;53.590;10.002;2023-09-19T13:38:23;3.78;;;1.45;;
17345;SDS011;8790;53.590;10.002;2023-09-19T13:40:55;5.88;;;1.73;;
17345;SDS011;8790;53.590;10.002;2023-09-19T13:43:27;7.15;;;1.80;;
17345;SDS011;8790;53.590;10.002;2023-09-19T13:45:59;4.50;;;1.60;;
17345;SDS011;8790;53.590;10.002;2023-09-19T13:48:31;5.43;;;1.60;;
17345;SDS011;8790;53.590;10.002;2023-09-19T13:51:05;3.67;;;1.45;;
17345;SDS011;8790;53.590;10.002;2023-09-19T13:53:36;6.88;;;1.80;;
17345;SDS011;8790;53.590;10.002;2023-09-19T13:56:09;4.63;;;1.70;;
17345;SDS011;8790;53.590;10.002;2023-09-19T13:58:41;4.55;;;1.90;;
17345;SDS011;8790;53.590;10.002;2023-09-19T14:01:13;5.53;;;1.90;;
17345;SDS011;8790;53.590;10.002;2023-09-19T14:03:44;3.75;;;1.65;;
17345;SDS011;8790;53.590;10.002;2023-09-19T14:06:17;3.45;;;1.50;;
17345;SDS011;8790;53.590;10.002;2023-09-19T14:08:48;5.18;;;1.80;;
17345;SDS011;8790;53.590;10.002;2023-09-19T14:11:22;4.60;;;1.52;;
17345;SDS011;8790;53.590;10.002;2023-09-19T14:13:53;4.18;;;1.50;;
17345;SDS011;8790;53.590;10.002;2023-09-19T14:16:25;4.63;;;1.67;;
17345;SDS011;8790;53.590;10.002;2023-09-19T14:19:00;6.05;;;1.73;;
17345;SDS011;8790;53.590;10.002;2023-09-19T14:21:31;5.25;;;1.67;;
17345;SDS011;8790;53.590;10.002;2023-09-19T14:24:03;4.30;;;1.80;;
17345;SDS011;8790;53.590;10.002;2023-09-19T14:26:38;4.82;;;2.25;;
17345;SDS011;8790;53.590;10.002;2023-09-19T14:29:09;3.90;;;1.65;;
17345;SDS011;8790;53.590;10.002;2023-09-19T14:31:41;4.15;;;1.60;;
17345;SDS011;8790;53.590;10.002;2023-09-19T14:34:13;4.85;;;1.65;;
17345;SDS011;8790;53.590;10.002;2023-09-19T14:36:47;6.22;;;1.70;;
17345;SDS011;8790;53.590;10.002;2023-09-19T14:39:19;5.43;;;1.40;;
17345;SDS011;8790;53.590;10.002;2023-09-19T14:41:52;6.10;;;1.75;;
17345;SDS011;8790;53.590;10.002;2023-09-19T14:44:23;3.78;;;1.50;;
17345;SDS011;8790;53.590;10.002;2023-09-19T14:46:55;7.72;;;1.90;;
17345;SDS011;8790;53.590;10.002;2023-09-19T14:49:26;3.72;;;1.40;;
17345;SDS011;8790;53.590;10.002;2023-09-19T14:51:57;6.75;;;1.83;;
17345;SDS011;8790;53.590;10.002;2023-09-19T14:54:29;3.35;;;1.77;;
17345;SDS011;8790;53.590;10.002;2023-09-19T14:57:02;7.53;;;2.90;;
17345;SDS011;8790;53.590;10.002;2023-09-19T14:59:35;7.05;;;1.92;;
17345;SDS011;8790;53.590;10.002;2023-09-19T15:02:07;6.78;;;2.10;;
17345;SDS011;8790;53.590;10.002;2023-09-19T15:04:38;3.70;;;1.48;;
17345;SDS011;8790;53.590;10.002;2023-09-19T15:07:10;6.65;;;1.67;;
17345;SDS011;8790;53.590;10.002;2023-09-19T15:09:42;5.88;;;1.60;;
17345;SDS011;8790;53.590;10.002;2023-09-19T15:12:15;3.90;;;1.48;;
17345;SDS011;8790;53.590;10.002;2023-09-19T15:14:47;6.47;;;1.67;;
17345;SDS011;8790;53.590;10.002;2023-09-19T15:17:18;2.97;;;1.50;;
17345;SDS011;8790;53.590;10.002;2023-09-19T15:19:50;4.22;;;1.55;;
17345;SDS011;8790;53.590;10.002;2023-09-19T15:22:23;4.20;;;1.60;;
17345;SDS011;8790;53.590;10.002;2023-09-19T15:24:55;5.20;;;1.63;;
17345;SDS011;8790;53.590;10.002;2023-09-19T15:27:28;3.95;;;1.42;;
17345;SDS011;8790;53.590;10.002;2023-09-19T15:30:00;5.03;;;1.85;;
17345;SDS011;8790;53.590;10.002;2023-09-19T15:32:35;4.72;;;1.60;;
17345;SDS011;8790;53.590;10.002;2023-09-19T15:35:07;5.15;;;1.92;;
17345;SDS011;8790;53.590;10.002;2023-09-19T15:37:39;5.82;;;1.75;;
17345;SDS011;8790;53.590;10.002;2023-09-19T15:40:11;4.75;;;1.95;;
17345;SDS011;8790;53.590;10.002;2023-09-19T15:42:45;4.50;;;2.00;;